sensor_id;sensor_type;location;lat;lon;timestamp;P1;durP1;ratioP1;P2;durP2;ratioP2
54679;SDS011;40578;53.178;5.846;2022-12-18T00:01:49;125.13;;;40.33;;
54679;SDS011;40578;53.178;5.846;2022-12-18T00:04:19;124.90;;;42.23;;
54679;SDS011;40578;53.178;5.846;2022-12-18T00:06:47;117.80;;;42.93;;
54679;SDS011;40578;53.178;5.846;2022-12-18T00:09:12;127.50;;;40.77;;
54679;SDS011;40578;53.178;5.846;2022-12-18T00:11:38;109.38;;;39.08;;
54679;SDS011;40578;53.178;5.846;2022-12-18T00:14:04;126.97;;;44.55;;
54679;SDS011;40578;53.178;5.846;2022-12-18T00:16:29;121.00;;;40.67;;
54679;SDS011;40578;53.178;5.846;2022-12-18T00:18:58;119.57;;;40.90;;
54679;SDS011;40578;53.178;5.846;2022-12-18T00:21:25;125.97;;;39.83;;
54679;SDS011;40578;53.178;5.846;2022-12-18T00:23:52;113.60;;;39.03;;
54679;SDS011;40578;53.178;5.846;2022-12-18T00:26:22;121.85;;;40.75;;
54679;SDS011;40578;53.178;5.846;2022-12-18T00:28:50;115.67;;;38.43;;
54679;SDS011;40578;53.178;5.846;2022-12-18T00:31:17;116.78;;;40.47;;
54679;SDS011;40578;53.178;5.846;2022-12-18T00:33:45;111.17;;;38.40;;
54679;SDS011;40578;53.178;5.846;2022-12-18T00:38:41;127.77;;;44.90;;
54679;SDS011;40578;53.178;5.846;2022-12-18T00:41:08;116.60;;;38.70;;
54679;SDS011;40578;53.178;5.846;2022-12-18T00:43:35;127.23;;;38.80;;
54679;SDS011;40578;53.178;5.846;2022-12-18T00:46:01;115.35;;;38.85;;
54679;SDS011;40578;53.178;5.846;2022-12-18T00:48:26;124.20;;;44.33;;
54679;SDS011;40578;53.178;5.846;2022-12-18T00:50:52;118.67;;;40.07;;
54679;SDS011;40578;53.178;5.846;2022-12-18T00:53:18;110.77;;;38.73;;
54679;SDS011;40578;53.178;5.846;2022-12-18T00:55:43;119.50;;;37.10;;
54679;SDS011;40578;53.178;5.846;2022-12-18T01:00:36;109.03;;;39.53;;
54679;SDS011;40578;53.178;5.846;2022-12-18T01:03:03;112.60;;;37.10;;
54679;SDS011;40578;53.178;5.846;2022-12-18T01:05:29;105.65;;;38.25;;
54679;SDS011;40578;53.178;5.846;2022-12-18T01:07:55;117.05;;;39.55;;
54679;SDS011;40578;53.178;5.846;2022-12-18T01:10:21;113.75;;;38.15;;
54679;SDS011;40578;53.178;5.846;2022-12-18T01:12:47;109.93;;;38.30;;
54679;SDS011;40578;53.178;5.846;2022-12-18T01:15:13;115.17;;;37.00;;
54679;SDS011;40578;53.178;5.846;2022-12-18T01:20:05;99.63;;;35.07;;
54679;SDS011;40578;53.178;5.846;2022-12-18T01:22:31;111.22;;;38.08;;
54679;SDS011;40578;53.178;5.846;2022-12-18T01:25:00;113.50;;;39.83;;
54679;SDS011;40578;53.178;5.846;2022-12-18T01:27:26;125.82;;;38.22;;
54679;SDS011;40578;53.178;5.846;2022-12-18T01:29:52;122.03;;;40.93;;
54679;SDS011;40578;53.178;5.846;2022-12-18T01:32:18;101.10;;;35.80;;
54679;SDS011;40578;53.178;5.846;2022-12-18T01:34:43;106.23;;;36.90;;
54679;SDS011;40578;53.178;5.846;2022-12-18T01:37:09;123.23;;;39.57;;
54679;SDS011;40578;53.178;5.846;2022-12-18T01:39:35;104.32;;;35.22;;
54679;SDS011;40578;53.178;5.846;2022-12-18T01:42:05;117.43;;;35.95;;
54679;SDS011;40578;53.178;5.846;2022-12-18T01:44:51;93.53;;;32.83;;
54679;SDS011;40578;53.178;5.846;2022-12-18T01:47:43;103.83;;;35.17;;
54679;SDS011;40578;53.178;5.846;2022-12-18T01:50:15;104.93;;;35.50;;
54679;SDS011;40578;53.178;5.846;2022-12-18T01:52:50;100.20;;;33.77;;
54679;SDS011;40578;53.178;5.846;2022-12-18T01:55:46;102.67;;;32.83;;
54679;SDS011;40578;53.178;5.846;2022-12-18T01:58:15;101.03;;;35.70;;
54679;SDS011;40578;53.178;5.846;2022-12-18T02:00:42;93.97;;;33.80;;
54679;SDS011;40578;53.178;5.846;2022-12-18T02:03:07;90.10;;;32.03;;
54679;SDS011;40578;53.178;5.846;2022-12-18T02:05:56;100.45;;;34.22;;
54679;SDS011;40578;53.178;5.846;2022-12-18T02:14:15;96.43;;;33.93;;
54679;SDS011;40578;53.178;5.846;2022-12-18T02:17:05;106.83;;;34.43;;
54679;SDS011;40578;53.178;5.846;2022-12-18T02:27:27;91.90;;;32.10;;
54679;SDS011;40578;53.178;5.846;2022-12-18T02:29:56;97.67;;;33.60;;
54679;SDS011;40578;53.178;5.846;2022-12-18T02:32:26;113.10;;;36.27;;
54679;SDS011;40578;53.178;5.846;2022-12-18T02:34:56;112.23;;;36.97;;
54679;SDS011;40578;53.178;5.846;2022-12-18T02:37:23;108.17;;;36.00;;
54679;SDS011;40578;53.178;5.846;2022-12-18T02:39:51;115.87;;;35.40;;
54679;SDS011;40578;53.178;5.846;2022-12-18T02:42:18;110.17;;;35.47;;
54679;SDS011;40578;53.178;5.846;2022-12-18T02:44:45;106.72;;;33.60;;
54679;SDS011;40578;53.178;5.846;2022-12-18T02:47:13;107.60;;;33.23;;
54679;SDS011;40578;53.178;5.846;2022-12-18T03:00:35;92.65;;;31.27;;
54679;SDS011;40578;53.178;5.846;2022-12-18T03:06:08;94.57;;;31.52;;
54679;SDS011;40578;53.178;5.846;2022-12-18T03:08:41;96.97;;;31.00;;
54679;SDS011;40578;53.178;5.846;2022-12-18T03:11:11;95.27;;;33.60;;
54679;SDS011;40578;53.178;5.846;2022-12-18T03:13:51;94.53;;;31.63;;
54679;SDS011;40578;53.178;5.846;2022-12-18T03:16:25;91.03;;;32.17;;
54679;SDS011;40578;53.178;5.846;2022-12-18T03:18:58;95.60;;;32.27;;
54679;SDS011;40578;53.178;5.846;2022-12-18T03:21:39;95.27;;;31.17;;
54679;SDS011;40578;53.178;5.846;2022-12-18T03:24:09;85.67;;;30.63;;
54679;SDS011;40578;53.178;5.846;2022-12-18T03:26:36;89.27;;;30.60;;
54679;SDS011;40578;53.178;5.846;2022-12-18T03:29:09;82.37;;;29.57;;
54679;SDS011;40578;53.178;5.846;2022-12-18T03:31:42;90.93;;;31.60;;
54679;SDS011;40578;53.178;5.846;2022-12-18T03:34:22;92.00;;;32.63;;
54679;SDS011;40578;53.178;5.846;2022-12-18T03:36:52;97.53;;;32.27;;
54679;SDS011;40578;53.178;5.846;2022-12-18T03:39:20;91.10;;;32.20;;
54679;SDS011;40578;53.178;5.846;2022-12-18T03:41:55;107.77;;;33.60;;
54679;SDS011;40578;53.178;5.846;2022-12-18T03:46:58;106.10;;;34.17;;
54679;SDS011;40578;53.178;5.846;2022-12-18T03:52:38;105.03;;;34.27;;
54679;SDS011;40578;53.178;5.846;2022-12-18T03:55:09;95.67;;;33.23;;
54679;SDS011;40578;53.178;5.846;2022-12-18T03:57:35;101.28;;;33.95;;
54679;SDS011;40578;53.178;5.846;2022-12-18T04:00:10;107.40;;;35.40;;
54679;SDS011;40578;53.178;5.846;2022-12-18T04:02:43;95.03;;;33.03;;
54679;SDS011;40578;53.178;5.846;2022-12-18T04:05:13;104.63;;;33.57;;
54679;SDS011;40578;53.178;5.846;2022-12-18T04:07:40;100.73;;;35.93;;
54679;SDS011;40578;53.178;5.846;2022-12-18T04:10:07;105.22;;;35.05;;
54679;SDS011;40578;53.178;5.846;2022-12-18T04:12:39;101.10;;;34.30;;
54679;SDS011;40578;53.178;5.846;2022-12-18T04:15:05;97.37;;;35.60;;
54679;SDS011;40578;53.178;5.846;2022-12-18T04:17:31;100.37;;;36.07;;
54679;SDS011;40578;53.178;5.846;2022-12-18T04:19:57;119.10;;;37.67;;
54679;SDS011;40578;53.178;5.846;2022-12-18T04:22:23;103.27;;;35.70;;
54679;SDS011;40578;53.178;5.846;2022-12-18T04:24:48;100.57;;;32.73;;
54679;SDS011;40578;53.178;5.846;2022-12-18T04:27:14;96.67;;;35.43;;
54679;SDS011;40578;53.178;5.846;2022-12-18T04:29:40;102.33;;;36.43;;
54679;SDS011;40578;53.178;5.846;2022-12-18T04:32:06;110.13;;;39.42;;
54679;SDS011;40578;53.178;5.846;2022-12-18T04:36:58;98.40;;;33.27;;
54679;SDS011;40578;53.178;5.846;2022-12-18T04:39:23;99.33;;;34.17;;
54679;SDS011;40578;53.178;5.846;2022-12-18T04:41:49;102.47;;;35.03;;
54679;SDS011;40578;53.178;5.846;2022-12-18T04:44:14;119.53;;;36.47;;
54679;SDS011;40578;53.178;5.846;2022-12-18T04:46:40;104.53;;;34.63;;
54679;SDS011;40578;53.178;5.846;2022-12-18T04:49:07;98.00;;;33.97;;
54679;SDS011;40578;53.178;5.846;2022-12-18T04:51:35;101.83;;;37.67;;
54679;SDS011;40578;53.178;5.846;2022-12-18T04:54:01;93.13;;;34.85;;
54679;SDS011;40578;53.178;5.846;2022-12-18T04:56:27;96.70;;;33.77;;
54679;SDS011;40578;53.178;5.846;2022-12-18T04:58:52;93.40;;;34.90;;
54679;SDS011;40578;53.178;5.846;2022-12-18T05:01:18;102.97;;;35.37;;
54679;SDS011;40578;53.178;5.846;2022-12-18T05:03:44;107.40;;;35.63;;
54679;SDS011;40578;53.178;5.846;2022-12-18T05:06:10;92.75;;;33.72;;
54679;SDS011;40578;53.178;5.846;2022-12-18T05:08:35;91.03;;;33.58;;
54679;SDS011;40578;53.178;5.846;2022-12-18T05:11:02;103.53;;;36.03;;
54679;SDS011;40578;53.178;5.846;2022-12-18T05:13:30;90.37;;;32.37;;
54679;SDS011;40578;53.178;5.846;2022-12-18T05:15:56;98.23;;;34.57;;
54679;SDS011;40578;53.178;5.846;2022-12-18T05:18:24;91.10;;;32.23;;
54679;SDS011;40578;53.178;5.846;2022-12-18T05:20:50;88.90;;;32.87;;
54679;SDS011;40578;53.178;5.846;2022-12-18T05:23:17;90.87;;;33.23;;
54679;SDS011;40578;53.178;5.846;2022-12-18T05:26:03;91.25;;;33.50;;
54679;SDS011;40578;53.178;5.846;2022-12-18T05:28:30;88.40;;;33.00;;
54679;SDS011;40578;53.178;5.846;2022-12-18T05:30:58;88.90;;;33.23;;
54679;SDS011;40578;53.178;5.846;2022-12-18T05:33:28;95.17;;;35.20;;
54679;SDS011;40578;53.178;5.846;2022-12-18T05:35:56;87.63;;;33.87;;
54679;SDS011;40578;53.178;5.846;2022-12-18T05:38:27;95.03;;;35.43;;
54679;SDS011;40578;53.178;5.846;2022-12-18T05:40:54;85.70;;;33.50;;
54679;SDS011;40578;53.178;5.846;2022-12-18T05:45:47;84.37;;;34.10;;
54679;SDS011;40578;53.178;5.846;2022-12-18T05:48:13;90.10;;;33.97;;
54679;SDS011;40578;53.178;5.846;2022-12-18T05:50:40;80.30;;;32.47;;
54679;SDS011;40578;53.178;5.846;2022-12-18T05:53:07;81.47;;;32.13;;
54679;SDS011;40578;53.178;5.846;2022-12-18T05:55:36;85.43;;;32.67;;
54679;SDS011;40578;53.178;5.846;2022-12-18T05:58:04;78.03;;;32.10;;
54679;SDS011;40578;53.178;5.846;2022-12-18T06:00:31;79.33;;;31.90;;
54679;SDS011;40578;53.178;5.846;2022-12-18T06:02:58;76.70;;;31.60;;
54679;SDS011;40578;53.178;5.846;2022-12-18T06:05:25;81.93;;;31.37;;
54679;SDS011;40578;53.178;5.846;2022-12-18T06:07:51;73.60;;;30.35;;
54679;SDS011;40578;53.178;5.846;2022-12-18T06:10:16;76.47;;;31.93;;
54679;SDS011;40578;53.178;5.846;2022-12-18T06:12:42;72.88;;;31.42;;
54679;SDS011;40578;53.178;5.846;2022-12-18T06:15:08;75.37;;;30.53;;
54679;SDS011;40578;53.178;5.846;2022-12-18T06:17:34;70.57;;;30.00;;
54679;SDS011;40578;53.178;5.846;2022-12-18T06:20:00;69.03;;;28.23;;
54679;SDS011;40578;53.178;5.846;2022-12-18T06:22:26;66.03;;;28.38;;
54679;SDS011;40578;53.178;5.846;2022-12-18T06:24:52;70.07;;;29.67;;
54679;SDS011;40578;53.178;5.846;2022-12-18T06:27:18;66.78;;;29.40;;
54679;SDS011;40578;53.178;5.846;2022-12-18T06:29:44;71.97;;;30.60;;
54679;SDS011;40578;53.178;5.846;2022-12-18T06:32:09;67.43;;;28.10;;
54679;SDS011;40578;53.178;5.846;2022-12-18T06:34:38;70.47;;;29.25;;
54679;SDS011;40578;53.178;5.846;2022-12-18T06:37:04;69.07;;;29.20;;
54679;SDS011;40578;53.178;5.846;2022-12-18T06:39:29;66.95;;;29.30;;
54679;SDS011;40578;53.178;5.846;2022-12-18T06:41:55;68.60;;;29.10;;
54679;SDS011;40578;53.178;5.846;2022-12-18T06:44:21;67.53;;;30.37;;
54679;SDS011;40578;53.178;5.846;2022-12-18T06:46:46;70.07;;;28.20;;
54679;SDS011;40578;53.178;5.846;2022-12-18T06:49:12;66.47;;;29.40;;
54679;SDS011;40578;53.178;5.846;2022-12-18T06:51:38;61.17;;;28.73;;
54679;SDS011;40578;53.178;5.846;2022-12-18T06:54:04;69.82;;;29.98;;
54679;SDS011;40578;53.178;5.846;2022-12-18T06:56:29;64.45;;;29.00;;
54679;SDS011;40578;53.178;5.846;2022-12-18T06:58:55;59.67;;;28.73;;
54679;SDS011;40578;53.178;5.846;2022-12-18T07:01:21;69.53;;;29.30;;
54679;SDS011;40578;53.178;5.846;2022-12-18T07:03:50;62.78;;;28.40;;
54679;SDS011;40578;53.178;5.846;2022-12-18T07:06:19;62.63;;;27.47;;
54679;SDS011;40578;53.178;5.846;2022-12-18T07:08:46;62.47;;;27.67;;
54679;SDS011;40578;53.178;5.846;2022-12-18T07:11:12;62.90;;;28.15;;
54679;SDS011;40578;53.178;5.846;2022-12-18T07:13:38;60.42;;;27.33;;
54679;SDS011;40578;53.178;5.846;2022-12-18T07:16:08;57.33;;;27.23;;
54679;SDS011;40578;53.178;5.846;2022-12-18T07:18:36;62.63;;;27.50;;
54679;SDS011;40578;53.178;5.846;2022-12-18T07:21:06;68.50;;;28.10;;
54679;SDS011;40578;53.178;5.846;2022-12-18T07:23:35;60.80;;;26.83;;
54679;SDS011;40578;53.178;5.846;2022-12-18T07:26:04;56.10;;;26.87;;
54679;SDS011;40578;53.178;5.846;2022-12-18T07:28:38;56.23;;;25.97;;
54679;SDS011;40578;53.178;5.846;2022-12-18T07:31:05;61.13;;;27.47;;
54679;SDS011;40578;53.178;5.846;2022-12-18T07:33:33;53.20;;;26.93;;
54679;SDS011;40578;53.178;5.846;2022-12-18T07:36:02;56.00;;;26.50;;
54679;SDS011;40578;53.178;5.846;2022-12-18T07:38:29;59.17;;;27.03;;
54679;SDS011;40578;53.178;5.846;2022-12-18T07:43:27;54.07;;;25.50;;
54679;SDS011;40578;53.178;5.846;2022-12-18T07:45:53;54.92;;;25.50;;
54679;SDS011;40578;53.178;5.846;2022-12-18T07:48:18;59.53;;;25.60;;
54679;SDS011;40578;53.178;5.846;2022-12-18T07:50:44;54.10;;;25.37;;
54679;SDS011;40578;53.178;5.846;2022-12-18T07:53:10;52.60;;;24.23;;
54679;SDS011;40578;53.178;5.846;2022-12-18T07:55:35;57.57;;;26.20;;
54679;SDS011;40578;53.178;5.846;2022-12-18T07:58:02;59.67;;;26.57;;
54679;SDS011;40578;53.178;5.846;2022-12-18T08:00:28;52.77;;;25.47;;
54679;SDS011;40578;53.178;5.846;2022-12-18T08:02:54;52.28;;;25.73;;
54679;SDS011;40578;53.178;5.846;2022-12-18T08:05:20;51.67;;;26.67;;
54679;SDS011;40578;53.178;5.846;2022-12-18T08:07:46;54.75;;;25.60;;
54679;SDS011;40578;53.178;5.846;2022-12-18T08:10:12;48.38;;;24.92;;
54679;SDS011;40578;53.178;5.846;2022-12-18T08:12:38;53.13;;;25.70;;
54679;SDS011;40578;53.178;5.846;2022-12-18T08:15:04;50.75;;;24.73;;
54679;SDS011;40578;53.178;5.846;2022-12-18T08:17:30;52.33;;;25.23;;
54679;SDS011;40578;53.178;5.846;2022-12-18T08:19:56;50.53;;;25.10;;
54679;SDS011;40578;53.178;5.846;2022-12-18T08:22:22;50.70;;;25.57;;
54679;SDS011;40578;53.178;5.846;2022-12-18T08:24:47;51.33;;;24.80;;
54679;SDS011;40578;53.178;5.846;2022-12-18T08:27:13;56.43;;;25.50;;
54679;SDS011;40578;53.178;5.846;2022-12-18T08:29:38;50.47;;;24.50;;
54679;SDS011;40578;53.178;5.846;2022-12-18T08:32:04;48.37;;;24.57;;
54679;SDS011;40578;53.178;5.846;2022-12-18T08:34:30;55.55;;;26.23;;
54679;SDS011;40578;53.178;5.846;2022-12-18T08:36:55;48.47;;;23.48;;
54679;SDS011;40578;53.178;5.846;2022-12-18T08:39:21;44.33;;;22.23;;
54679;SDS011;40578;53.178;5.846;2022-12-18T08:41:46;45.50;;;23.87;;
54679;SDS011;40578;53.178;5.846;2022-12-18T08:44:32;53.87;;;24.07;;
54679;SDS011;40578;53.178;5.846;2022-12-18T08:47:06;49.80;;;25.50;;
54679;SDS011;40578;53.178;5.846;2022-12-18T08:49:33;49.80;;;24.60;;
54679;SDS011;40578;53.178;5.846;2022-12-18T08:52:00;44.90;;;24.00;;
54679;SDS011;40578;53.178;5.846;2022-12-18T08:54:26;50.13;;;24.83;;
54679;SDS011;40578;53.178;5.846;2022-12-18T08:56:52;48.22;;;24.98;;
54679;SDS011;40578;53.178;5.846;2022-12-18T08:59:18;52.60;;;24.93;;
54679;SDS011;40578;53.178;5.846;2022-12-18T09:01:45;49.05;;;25.52;;
54679;SDS011;40578;53.178;5.846;2022-12-18T09:04:12;43.87;;;23.90;;
54679;SDS011;40578;53.178;5.846;2022-12-18T09:06:39;49.07;;;25.17;;
54679;SDS011;40578;53.178;5.846;2022-12-18T09:09:05;47.30;;;24.02;;
54679;SDS011;40578;53.178;5.846;2022-12-18T09:11:31;50.58;;;25.23;;
54679;SDS011;40578;53.178;5.846;2022-12-18T09:13:58;48.70;;;25.03;;
54679;SDS011;40578;53.178;5.846;2022-12-18T09:16:26;48.17;;;24.47;;
54679;SDS011;40578;53.178;5.846;2022-12-18T09:18:54;49.97;;;25.70;;
54679;SDS011;40578;53.178;5.846;2022-12-18T09:21:24;44.03;;;24.27;;
54679;SDS011;40578;53.178;5.846;2022-12-18T09:23:52;47.57;;;23.77;;
54679;SDS011;40578;53.178;5.846;2022-12-18T09:26:20;45.73;;;25.03;;
54679;SDS011;40578;53.178;5.846;2022-12-18T09:28:46;52.97;;;26.57;;
54679;SDS011;40578;53.178;5.846;2022-12-18T09:31:12;44.77;;;24.70;;
54679;SDS011;40578;53.178;5.846;2022-12-18T09:33:40;53.80;;;26.33;;
54679;SDS011;40578;53.178;5.846;2022-12-18T09:36:06;46.13;;;24.15;;
54679;SDS011;40578;53.178;5.846;2022-12-18T09:38:34;50.30;;;24.87;;
54679;SDS011;40578;53.178;5.846;2022-12-18T09:41:03;45.85;;;22.80;;
54679;SDS011;40578;53.178;5.846;2022-12-18T09:43:50;42.53;;;22.67;;
54679;SDS011;40578;53.178;5.846;2022-12-18T09:46:20;41.63;;;22.30;;
54679;SDS011;40578;53.178;5.846;2022-12-18T09:48:52;43.00;;;23.33;;
54679;SDS011;40578;53.178;5.846;2022-12-18T09:51:39;41.50;;;22.50;;
54679;SDS011;40578;53.178;5.846;2022-12-18T09:54:12;43.13;;;23.27;;
54679;SDS011;40578;53.178;5.846;2022-12-18T09:56:45;42.27;;;21.23;;
54679;SDS011;40578;53.178;5.846;2022-12-18T09:59:19;39.80;;;21.38;;
54679;SDS011;40578;53.178;5.846;2022-12-18T10:01:49;40.60;;;21.40;;
54679;SDS011;40578;53.178;5.846;2022-12-18T10:04:15;39.75;;;20.55;;
54679;SDS011;40578;53.178;5.846;2022-12-18T10:07:01;39.55;;;20.77;;
54679;SDS011;40578;53.178;5.846;2022-12-18T10:09:36;34.13;;;19.20;;
54679;SDS011;40578;53.178;5.846;2022-12-18T10:15:10;36.87;;;18.90;;
54679;SDS011;40578;53.178;5.846;2022-12-18T10:17:51;37.13;;;18.77;;
54679;SDS011;40578;53.178;5.846;2022-12-18T10:20:36;36.87;;;18.63;;
54679;SDS011;40578;53.178;5.846;2022-12-18T10:23:12;32.78;;;18.92;;
54679;SDS011;40578;53.178;5.846;2022-12-18T10:25:55;33.07;;;17.57;;
54679;SDS011;40578;53.178;5.846;2022-12-18T10:28:34;33.53;;;19.07;;
54679;SDS011;40578;53.178;5.846;2022-12-18T10:31:04;32.10;;;17.27;;
54679;SDS011;40578;53.178;5.846;2022-12-18T10:33:31;31.23;;;17.57;;
54679;SDS011;40578;53.178;5.846;2022-12-18T10:35:58;34.93;;;19.03;;
54679;SDS011;40578;53.178;5.846;2022-12-18T10:38:29;36.45;;;19.35;;
54679;SDS011;40578;53.178;5.846;2022-12-18T10:48:52;28.77;;;16.63;;
54679;SDS011;40578;53.178;5.846;2022-12-18T10:51:24;30.20;;;15.93;;
54679;SDS011;40578;53.178;5.846;2022-12-18T10:53:54;26.67;;;14.77;;
54679;SDS011;40578;53.178;5.846;2022-12-18T10:56:23;23.97;;;15.07;;
54679;SDS011;40578;53.178;5.846;2022-12-18T10:58:55;26.90;;;14.90;;
54679;SDS011;40578;53.178;5.846;2022-12-18T11:01:25;22.37;;;14.00;;
54679;SDS011;40578;53.178;5.846;2022-12-18T11:06:21;28.17;;;16.13;;
54679;SDS011;40578;53.178;5.846;2022-12-18T11:09:02;26.87;;;15.73;;
54679;SDS011;40578;53.178;5.846;2022-12-18T11:11:29;24.10;;;13.00;;
54679;SDS011;40578;53.178;5.846;2022-12-18T11:14:02;21.63;;;12.27;;
54679;SDS011;40578;53.178;5.846;2022-12-18T11:16:30;22.27;;;13.27;;
54679;SDS011;40578;53.178;5.846;2022-12-18T11:19:12;22.47;;;12.27;;
54679;SDS011;40578;53.178;5.846;2022-12-18T11:21:57;21.47;;;11.77;;
54679;SDS011;40578;53.178;5.846;2022-12-18T11:26:49;23.10;;;12.37;;
54679;SDS011;40578;53.178;5.846;2022-12-18T11:29:16;20.60;;;12.18;;
54679;SDS011;40578;53.178;5.846;2022-12-18T11:31:47;22.40;;;12.10;;
54679;SDS011;40578;53.178;5.846;2022-12-18T11:34:15;19.37;;;11.83;;
54679;SDS011;40578;53.178;5.846;2022-12-18T11:36:43;19.03;;;11.37;;
54679;SDS011;40578;53.178;5.846;2022-12-18T11:39:20;19.80;;;11.67;;
54679;SDS011;40578;53.178;5.846;2022-12-18T11:41:49;19.27;;;11.03;;
54679;SDS011;40578;53.178;5.846;2022-12-18T11:49:40;20.17;;;11.60;;
54679;SDS011;40578;53.178;5.846;2022-12-18T11:52:13;20.70;;;11.70;;
54679;SDS011;40578;53.178;5.846;2022-12-18T11:54:55;20.97;;;11.87;;
54679;SDS011;40578;53.178;5.846;2022-12-18T12:00:08;18.33;;;11.60;;
54679;SDS011;40578;53.178;5.846;2022-12-18T12:05:57;20.03;;;11.70;;
54679;SDS011;40578;53.178;5.846;2022-12-18T12:08:50;20.60;;;11.73;;
54679;SDS011;40578;53.178;5.846;2022-12-18T12:19:22;17.70;;;11.70;;
54679;SDS011;40578;53.178;5.846;2022-12-18T12:24:53;19.30;;;11.03;;
54679;SDS011;40578;53.178;5.846;2022-12-18T12:30:20;18.30;;;10.90;;
54679;SDS011;40578;53.178;5.846;2022-12-18T12:38:15;18.00;;;11.10;;
54679;SDS011;40578;53.178;5.846;2022-12-18T12:40:49;20.10;;;10.53;;
54679;SDS011;40578;53.178;5.846;2022-12-18T12:43:24;16.97;;;10.50;;
54679;SDS011;40578;53.178;5.846;2022-12-18T12:46:09;19.15;;;10.65;;
54679;SDS011;40578;53.178;5.846;2022-12-18T12:51:34;17.53;;;10.70;;
54679;SDS011;40578;53.178;5.846;2022-12-18T12:54:01;16.87;;;10.70;;
54679;SDS011;40578;53.178;5.846;2022-12-18T12:56:35;16.70;;;10.00;;
54679;SDS011;40578;53.178;5.846;2022-12-18T12:59:22;17.93;;;10.00;;
54679;SDS011;40578;53.178;5.846;2022-12-18T13:02:15;17.53;;;10.80;;
54679;SDS011;40578;53.178;5.846;2022-12-18T13:04:49;17.63;;;10.03;;
54679;SDS011;40578;53.178;5.846;2022-12-18T13:07:41;16.87;;;10.13;;
54679;SDS011;40578;53.178;5.846;2022-12-18T13:15:46;16.07;;;9.37;;
54679;SDS011;40578;53.178;5.846;2022-12-18T13:18:31;17.07;;;10.23;;
54679;SDS011;40578;53.178;5.846;2022-12-18T13:28:21;16.83;;;10.40;;
54679;SDS011;40578;53.178;5.846;2022-12-18T13:36:47;16.58;;;9.48;;
54679;SDS011;40578;53.178;5.846;2022-12-18T13:41:38;16.63;;;10.73;;
54679;SDS011;40578;53.178;5.846;2022-12-18T13:46:52;16.90;;;10.10;;
54679;SDS011;40578;53.178;5.846;2022-12-18T13:49:38;15.02;;;9.50;;
54679;SDS011;40578;53.178;5.846;2022-12-18T13:52:19;17.40;;;9.37;;
54679;SDS011;40578;53.178;5.846;2022-12-18T13:54:50;16.17;;;9.57;;
54679;SDS011;40578;53.178;5.846;2022-12-18T13:59:58;14.83;;;9.30;;
54679;SDS011;40578;53.178;5.846;2022-12-18T14:02:44;14.17;;;9.03;;
54679;SDS011;40578;53.178;5.846;2022-12-18T14:05:27;17.63;;;10.83;;
54679;SDS011;40578;53.178;5.846;2022-12-18T14:07:55;13.40;;;9.10;;
54679;SDS011;40578;53.178;5.846;2022-12-18T14:10:35;14.77;;;9.27;;
54679;SDS011;40578;53.178;5.846;2022-12-18T14:13:06;14.03;;;8.83;;
54679;SDS011;40578;53.178;5.846;2022-12-18T14:15:38;15.00;;;8.57;;
54679;SDS011;40578;53.178;5.846;2022-12-18T14:18:25;13.00;;;8.57;;
54679;SDS011;40578;53.178;5.846;2022-12-18T14:20:59;16.17;;;8.63;;
54679;SDS011;40578;53.178;5.846;2022-12-18T14:23:39;13.37;;;8.60;;
54679;SDS011;40578;53.178;5.846;2022-12-18T14:26:23;13.53;;;8.60;;
54679;SDS011;40578;53.178;5.846;2022-12-18T14:28:57;13.20;;;8.05;;
54679;SDS011;40578;53.178;5.846;2022-12-18T14:31:27;16.57;;;9.73;;
54679;SDS011;40578;53.178;5.846;2022-12-18T14:33:54;13.17;;;8.73;;
54679;SDS011;40578;53.178;5.846;2022-12-18T14:36:21;13.07;;;8.35;;
54679;SDS011;40578;53.178;5.846;2022-12-18T14:38:55;12.67;;;7.80;;
54679;SDS011;40578;53.178;5.846;2022-12-18T14:41:22;11.97;;;7.83;;
54679;SDS011;40578;53.178;5.846;2022-12-18T14:46:35;12.90;;;7.18;;
54679;SDS011;40578;53.178;5.846;2022-12-18T14:51:57;13.23;;;7.83;;
54679;SDS011;40578;53.178;5.846;2022-12-18T14:54:24;13.67;;;7.60;;
54679;SDS011;40578;53.178;5.846;2022-12-18T14:56:56;11.53;;;7.60;;
54679;SDS011;40578;53.178;5.846;2022-12-18T14:59:28;12.87;;;7.67;;
54679;SDS011;40578;53.178;5.846;2022-12-18T15:04:43;13.13;;;7.63;;
54679;SDS011;40578;53.178;5.846;2022-12-18T15:07:17;12.88;;;7.78;;
54679;SDS011;40578;53.178;5.846;2022-12-18T15:12:35;11.80;;;7.43;;
54679;SDS011;40578;53.178;5.846;2022-12-18T15:18:02;12.40;;;7.63;;
54679;SDS011;40578;53.178;5.846;2022-12-18T15:20:50;11.63;;;7.13;;
54679;SDS011;40578;53.178;5.846;2022-12-18T15:23:28;14.03;;;7.63;;
54679;SDS011;40578;53.178;5.846;2022-12-18T15:26:04;12.03;;;7.50;;
54679;SDS011;40578;53.178;5.846;2022-12-18T15:28:35;11.13;;;7.10;;
54679;SDS011;40578;53.178;5.846;2022-12-18T15:33:33;12.20;;;7.40;;
54679;SDS011;40578;53.178;5.846;2022-12-18T15:36:00;12.63;;;7.93;;
54679;SDS011;40578;53.178;5.846;2022-12-18T15:38:28;13.03;;;8.37;;
54679;SDS011;40578;53.178;5.846;2022-12-18T15:40:54;13.10;;;6.95;;
54679;SDS011;40578;53.178;5.846;2022-12-18T15:43:21;12.43;;;7.28;;
54679;SDS011;40578;53.178;5.846;2022-12-18T15:46:04;13.73;;;8.13;;
54679;SDS011;40578;53.178;5.846;2022-12-18T15:48:35;11.33;;;7.40;;
54679;SDS011;40578;53.178;5.846;2022-12-18T15:51:04;12.00;;;7.60;;
54679;SDS011;40578;53.178;5.846;2022-12-18T15:53:35;13.20;;;7.80;;
54679;SDS011;40578;53.178;5.846;2022-12-18T15:56:01;13.77;;;8.33;;
54679;SDS011;40578;53.178;5.846;2022-12-18T15:58:45;13.63;;;7.70;;
54679;SDS011;40578;53.178;5.846;2022-12-18T16:01:11;14.20;;;7.87;;
54679;SDS011;40578;53.178;5.846;2022-12-18T16:03:37;12.70;;;7.85;;
54679;SDS011;40578;53.178;5.846;2022-12-18T16:06:02;12.37;;;7.90;;
54679;SDS011;40578;53.178;5.846;2022-12-18T16:08:28;12.87;;;7.87;;
54679;SDS011;40578;53.178;5.846;2022-12-18T16:10:55;15.18;;;9.52;;
54679;SDS011;40578;53.178;5.846;2022-12-18T16:13:21;13.37;;;8.30;;
54679;SDS011;40578;53.178;5.846;2022-12-18T16:15:47;12.53;;;8.00;;
54679;SDS011;40578;53.178;5.846;2022-12-18T16:18:13;13.85;;;8.10;;
54679;SDS011;40578;53.178;5.846;2022-12-18T16:20:39;14.57;;;8.80;;
54679;SDS011;40578;53.178;5.846;2022-12-18T16:23:05;12.70;;;7.78;;
54679;SDS011;40578;53.178;5.846;2022-12-18T16:25:30;13.27;;;8.43;;
54679;SDS011;40578;53.178;5.846;2022-12-18T16:27:56;15.13;;;8.37;;
54679;SDS011;40578;53.178;5.846;2022-12-18T16:30:23;17.30;;;9.03;;
54679;SDS011;40578;53.178;5.846;2022-12-18T16:32:55;13.33;;;8.57;;
54679;SDS011;40578;53.178;5.846;2022-12-18T16:35:22;15.27;;;9.40;;
54679;SDS011;40578;53.178;5.846;2022-12-18T16:37:49;15.27;;;9.50;;
54679;SDS011;40578;53.178;5.846;2022-12-18T16:40:16;17.67;;;10.63;;
54679;SDS011;40578;53.178;5.846;2022-12-18T16:42:43;14.33;;;8.80;;
54679;SDS011;40578;53.178;5.846;2022-12-18T16:45:11;14.83;;;9.60;;
54679;SDS011;40578;53.178;5.846;2022-12-18T16:47:38;14.30;;;8.43;;
54679;SDS011;40578;53.178;5.846;2022-12-18T16:50:05;17.98;;;10.65;;
54679;SDS011;40578;53.178;5.846;2022-12-18T16:54:57;16.10;;;9.00;;
54679;SDS011;40578;53.178;5.846;2022-12-18T16:57:22;17.13;;;10.80;;
54679;SDS011;40578;53.178;5.846;2022-12-18T16:59:48;17.10;;;9.30;;